sensor_id;sensor_type;location;lat;lon;timestamp;temperature;humidity
19817;DHT22;68323;49.394;8.434;2024-02-16T04:04:44;12.90;99.90
19817;DHT22;68323;49.394;8.434;2024-02-16T04:07:10;13.00;99.90
19817;DHT22;68323;49.394;8.434;2024-02-16T04:09:35;13.00;99.90
19817;DHT22;68323;49.394;8.434;2024-02-16T04:12:02;12.90;99.90
19817;DHT22;68323;49.394;8.434;2024-02-16T04:14:29;12.90;99.90
19817;DHT22;68323;49.394;8.434;2024-02-16T04:16:54;12.90;99.90
19817;DHT22;68323;49.394;8.434;2024-02-16T04:19:24;12.90;99.90
19817;DHT22;68323;49.394;8.434;2024-02-16T04:21:49;12.80;99.90
19817;DHT22;68323;49.394;8.434;2024-02-16T04:24:15;12.80;99.90
19817;DHT22;68323;49.394;8.434;2024-02-16T04:26:40;12.70;99.90
19817;DHT22;68323;49.394;8.434;2024-02-16T04:29:06;12.70;99.90
19817;DHT22;68323;49.394;8.434;2024-02-16T04:31:31;12.70;99.90
19817;DHT22;68323;49.394;8.434;2024-02-16T04:33:57;12.70;99.90
19817;DHT22;68323;49.394;8.434;2024-02-16T04:36:22;12.60;99.90
19817;DHT22;68323;49.394;8.434;2024-02-16T04:38:48;12.60;99.90
19817;DHT22;68323;49.394;8.434;2024-02-16T04:41:13;12.60;99.90
19817;DHT22;68323;49.394;8.434;2024-02-16T04:43:39;12.60;99.90
19817;DHT22;68323;49.394;8.434;2024-02-16T04:46:05;12.60;99.90
19817;DHT22;68323;49.394;8.434;2024-02-16T04:48:30;12.50;99.90
19817;DHT22;68323;49.394;8.434;2024-02-16T04:50:57;12.60;99.90
19817;DHT22;68323;49.394;8.434;2024-02-16T04:53:23;12.50;99.90
19817;DHT22;68323;49.394;8.434;2024-02-16T04:55:48;12.60;99.90
19817;DHT22;68323;49.394;8.434;2024-02-16T04:58:14;12.60;99.90
19817;DHT22;68323;49.394;8.434;2024-02-16T05:00:40;12.50;99.90
19817;DHT22;68323;49.394;8.434;2024-02-16T05:03:06;12.60;99.90
19817;DHT22;68323;49.394;8.434;2024-02-16T05:05:31;12.60;99.90
19817;DHT22;68323;49.394;8.434;2024-02-16T05:07:57;12.50;99.90
19817;DHT22;68323;49.394;8.434;2024-02-16T05:10:23;12.50;99.90
19817;DHT22;68323;49.394;8.434;2024-02-16T05:12:48;12.50;99.90
19817;DHT22;68323;49.394;8.434;2024-02-16T05:15:14;12.50;99.90
19817;DHT22;68323;49.394;8.434;2024-02-16T05:17:40;12.50;99.90
19817;DHT22;68323;49.394;8.434;2024-02-16T05:20:10;12.50;99.90
19817;DHT22;68323;49.394;8.434;2024-02-16T05:22:43;12.50;99.90
19817;DHT22;68323;49.394;8.434;2024-02-16T05:25:09;12.50;99.90
19817;DHT22;68323;49.394;8.434;2024-02-16T05:27:36;12.50;99.90
19817;DHT22;68323;49.394;8.434;2024-02-16T05:30:05;12.50;99.90
19817;DHT22;68323;49.394;8.434;2024-02-16T05:32:36;12.50;99.90
19817;DHT22;68323;49.394;8.434;2024-02-16T05:35:03;12.50;99.90
19817;DHT22;68323;49.394;8.434;2024-02-16T05:37:40;12.50;99.90
19817;DHT22;68323;49.394;8.434;2024-02-16T05:40:08;12.50;99.90
19817;DHT22;68323;49.394;8.434;2024-02-16T05:42:45;12.50;99.90
19817;DHT22;68323;49.394;8.434;2024-02-16T05:45:11;12.50;99.90
19817;DHT22;68323;49.394;8.434;2024-02-16T05:47:36;12.50;99.90
19817;DHT22;68323;49.394;8.434;2024-02-16T05:50:04;12.50;99.90
19817;DHT22;68323;49.394;8.434;2024-02-16T05:52:30;12.50;99.90
19817;DHT22;68323;49.394;8.434;2024-02-16T05:54:56;12.60;99.90
19817;DHT22;68323;49.394;8.434;2024-02-16T05:57:21;12.60;99.90
19817;DHT22;68323;49.394;8.434;2024-02-16T05:59:48;12.60;99.90
19817;DHT22;68323;49.394;8.434;2024-02-16T06:02:14;12.50;99.90
19817;DHT22;68323;49.394;8.434;2024-02-16T06:04:40;12.50;99.90
19817;DHT22;68323;49.394;8.434;2024-02-16T06:07:06;12.50;99.90
19817;DHT22;68323;49.394;8.434;2024-02-16T06:09:31;12.50;99.90
19817;DHT22;68323;49.394;8.434;2024-02-16T06:12:04;12.50;99.90
19817;DHT22;68323;49.394;8.434;2024-02-16T06:14:31;12.50;99.90
19817;DHT22;68323;49.394;8.434;2024-02-16T06:16:57;12.50;99.90
19817;DHT22;68323;49.394;8.434;2024-02-16T06:19:22;12.50;99.90
19817;DHT22;68323;49.394;8.434;2024-02-16T06:21:48;12.50;99.90
19817;DHT22;68323;49.394;8.434;2024-02-16T06:24:13;12.50;99.90
19817;DHT22;68323;49.394;8.434;2024-02-16T06:26:39;12.50;99.90
19817;DHT22;68323;49.394;8.434;2024-02-16T06:29:04;12.50;99.90
19817;DHT22;68323;49.394;8.434;2024-02-16T06:31:30;12.50;99.90
19817;DHT22;68323;49.394;8.434;2024-02-16T06:33:55;12.50;99.90
19817;DHT22;68323;49.394;8.434;2024-02-16T06:36:22;12.50;99.90
19817;DHT22;68323;49.394;8.434;2024-02-16T06:38:47;12.60;99.90
19817;DHT22;68323;49.394;8.434;2024-02-16T06:41:13;12.60;99.90
19817;DHT22;68323;49.394;8.434;2024-02-16T06:43:38;12.50;99.90
19817;DHT22;68323;49.394;8.434;2024-02-16T06:46:04;12.50;99.90
19817;DHT22;68323;49.394;8.434;2024-02-16T06:48:30;12.50;99.90
19817;DHT22;68323;49.394;8.434;2024-02-16T06:50:55;12.50;99.90
19817;DHT22;68323;49.394;8.434;2024-02-16T06:53:21;12.50;99.90
19817;DHT22;68323;49.394;8.434;2024-02-16T06:55:47;12.50;99.90
19817;DHT22;68323;49.394;8.434;2024-02-16T06:58:13;12.60;99.90
19817;DHT22;68323;49.394;8.434;2024-02-16T07:00:38;12.60;99.90
19817;DHT22;68323;49.394;8.434;2024-02-16T07:03:07;12.70;99.90
19817;DHT22;68323;49.394;8.434;2024-02-16T07:05:33;12.70;99.90
19817;DHT22;68323;49.394;8.434;2024-02-16T07:07:58;12.80;99.90
19817;DHT22;68323;49.394;8.434;2024-02-16T07:10:24;12.80;99.90
19817;DHT22;68323;49.394;8.434;2024-02-16T07:12:49;12.90;99.90
19817;DHT22;68323;49.394;8.434;2024-02-16T07:15:15;13.00;99.90
19817;DHT22;68323;49.394;8.434;2024-02-16T07:17:40;13.00;99.90
19817;DHT22;68323;49.394;8.434;2024-02-16T07:20:06;13.10;99.90
19817;DHT22;68323;49.394;8.434;2024-02-16T07:22:32;13.00;99.90
19817;DHT22;68323;49.394;8.434;2024-02-16T07:24:59;13.00;99.90
19817;DHT22;68323;49.394;8.434;2024-02-16T07:27:28;13.00;99.90
19817;DHT22;68323;49.394;8.434;2024-02-16T07:29:54;13.10;99.90
19817;DHT22;68323;49.394;8.434;2024-02-16T07:32:20;13.10;99.90
19817;DHT22;68323;49.394;8.434;2024-02-16T07:34:47;13.10;99.90
19817;DHT22;68323;49.394;8.434;2024-02-16T07:37:13;13.20;99.90
19817;DHT22;68323;49.394;8.434;2024-02-16T07:39:42;13.30;99.90
19817;DHT22;68323;49.394;8.434;2024-02-16T07:42:08;13.40;99.90
19817;DHT22;68323;49.394;8.434;2024-02-16T07:44:38;13.30;99.90
19817;DHT22;68323;49.394;8.434;2024-02-16T07:47:04;13.40;99.90
19817;DHT22;68323;49.394;8.434;2024-02-16T07:49:30;13.40;99.90
19817;DHT22;68323;49.394;8.434;2024-02-16T07:51:55;13.40;99.90
19817;DHT22;68323;49.394;8.434;2024-02-16T07:54:21;13.40;99.90
19817;DHT22;68323;49.394;8.434;2024-02-16T07:56:50;13.40;99.90
19817;DHT22;68323;49.394;8.434;2024-02-16T07:59:15;13.40;99.90
19817;DHT22;68323;49.394;8.434;2024-02-16T08:01:45;13.30;99.90
19817;DHT22;68323;49.394;8.434;2024-02-16T08:04:11;13.30;99.90
19817;DHT22;68323;49.394;8.434;2024-02-16T08:06:39;13.30;99.90
19817;DHT22;68323;49.394;8.434;2024-02-16T08:09:07;13.20;99.90
19817;DHT22;68323;49.394;8.434;2024-02-16T08:11:33;13.20;99.90
19817;DHT22;68323;49.394;8.434;2024-02-16T08:13:59;13.20;99.90
19817;DHT22;68323;49.394;8.434;2024-02-16T08:16:29;13.20;99.90
19817;DHT22;68323;49.394;8.434;2024-02-16T08:18:54;13.20;99.90
19817;DHT22;68323;49.394;8.434;2024-02-16T08:21:20;13.30;99.90
19817;DHT22;68323;49.394;8.434;2024-02-16T08:23:46;13.30;99.90
19817;DHT22;68323;49.394;8.434;2024-02-16T08:26:15;13.40;99.90
19817;DHT22;68323;49.394;8.434;2024-02-16T08:28:45;13.40;99.90
19817;DHT22;68323;49.394;8.434;2024-02-16T08:50:55;14.60;99.90
19817;DHT22;68323;49.394;8.434;2024-02-16T08:53:21;14.50;99.90
19817;DHT22;68323;49.394;8.434;2024-02-16T08:55:47;14.50;99.90
19817;DHT22;68323;49.394;8.434;2024-02-16T08:58:15;14.50;99.90
19817;DHT22;68323;49.394;8.434;2024-02-16T09:00:41;14.50;99.90
19817;DHT22;68323;49.394;8.434;2024-02-16T09:03:07;14.50;99.90
19817;DHT22;68323;49.394;8.434;2024-02-16T09:05:34;14.60;99.90
19817;DHT22;68323;49.394;8.434;2024-02-16T09:07:59;14.70;99.90
19817;DHT22;68323;49.394;8.434;2024-02-16T09:10:25;14.70;99.90
19817;DHT22;68323;49.394;8.434;2024-02-16T09:12:51;14.80;99.90
19817;DHT22;68323;49.394;8.434;2024-02-16T09:50:10;18.70;99.90
19817;DHT22;68323;49.394;8.434;2024-02-16T09:52:36;18.70;99.90
19817;DHT22;68323;49.394;8.434;2024-02-16T13:54:48;19.80;99.90
19817;DHT22;68323;49.394;8.434;2024-02-16T13:57:14;19.70;99.90
19817;DHT22;68323;49.394;8.434;2024-02-16T13:59:40;19.60;99.90
19817;DHT22;68323;49.394;8.434;2024-02-16T14:02:06;19.40;99.90
19817;DHT22;68323;49.394;8.434;2024-02-16T14:04:32;19.20;99.90
19817;DHT22;68323;49.394;8.434;2024-02-16T14:06:58;19.10;99.90
19817;DHT22;68323;49.394;8.434;2024-02-16T14:09:24;19.00;99.90
19817;DHT22;68323;49.394;8.434;2024-02-16T14:11:52;18.90;99.90
19817;DHT22;68323;49.394;8.434;2024-02-16T14:14:19;18.80;99.90
19817;DHT22;68323;49.394;8.434;2024-02-16T14:16:45;18.70;99.90
19817;DHT22;68323;49.394;8.434;2024-02-16T14:19:11;18.70;99.90
19817;DHT22;68323;49.394;8.434;2024-02-16T14:21:36;18.70;99.90
19817;DHT22;68323;49.394;8.434;2024-02-16T14:24:02;18.60;99.90
19817;DHT22;68323;49.394;8.434;2024-02-16T14:26:43;18.60;99.90
19817;DHT22;68323;49.394;8.434;2024-02-16T14:32:31;18.40;99.90
19817;DHT22;68323;49.394;8.434;2024-02-16T14:34:57;18.30;99.90
19817;DHT22;68323;49.394;8.434;2024-02-16T14:37:23;18.20;99.90
19817;DHT22;68323;49.394;8.434;2024-02-16T14:39:57;18.20;99.90
19817;DHT22;68323;49.394;8.434;2024-02-16T14:42:35;18.20;99.90
19817;DHT22;68323;49.394;8.434;2024-02-16T14:45:04;18.10;99.90
19817;DHT22;68323;49.394;8.434;2024-02-16T14:50:00;18.00;99.90
19817;DHT22;68323;49.394;8.434;2024-02-16T14:52:46;18.00;99.90
19817;DHT22;68323;49.394;8.434;2024-02-16T14:55:25;17.90;99.90
19817;DHT22;68323;49.394;8.434;2024-02-16T14:57:54;17.90;99.90
19817;DHT22;68323;49.394;8.434;2024-02-16T15:00:22;17.80;99.90
19817;DHT22;68323;49.394;8.434;2024-02-16T15:02:50;17.80;99.90
19817;DHT22;68323;49.394;8.434;2024-02-16T15:10:09;17.70;99.90
19817;DHT22;68323;49.394;8.434;2024-02-16T15:17:33;18.10;99.90
19817;DHT22;68323;49.394;8.434;2024-02-16T16:23:50;15.80;99.90
19817;DHT22;68323;49.394;8.434;2024-02-16T16:26:16;15.70;99.90
19817;DHT22;68323;49.394;8.434;2024-02-16T16:28:51;15.60;99.90
19817;DHT22;68323;49.394;8.434;2024-02-16T16:34:04;15.50;99.90
19817;DHT22;68323;49.394;8.434;2024-02-16T16:36:32;15.50;99.90
19817;DHT22;68323;49.394;8.434;2024-02-16T16:38:58;15.50;99.90
19817;DHT22;68323;49.394;8.434;2024-02-16T16:41:29;15.40;99.90
19817;DHT22;68323;49.394;8.434;2024-02-16T17:04:07;15.20;99.90
19817;DHT22;68323;49.394;8.434;2024-02-16T17:10:04;15.10;99.90
19817;DHT22;68323;49.394;8.434;2024-02-16T17:35:41;14.80;99.90
19817;DHT22;68323;49.394;8.434;2024-02-16T17:38:08;14.70;99.90
19817;DHT22;68323;49.394;8.434;2024-02-16T17:40:34;14.70;99.90
19817;DHT22;68323;49.394;8.434;2024-02-16T17:43:01;14.70;99.90
19817;DHT22;68323;49.394;8.434;2024-02-16T17:45:26;14.70;99.90
19817;DHT22;68323;49.394;8.434;2024-02-16T17:47:52;14.70;99.90
19817;DHT22;68323;49.394;8.434;2024-02-16T17:50:17;14.70;99.90
19817;DHT22;68323;49.394;8.434;2024-02-16T17:52:43;14.70;99.90
19817;DHT22;68323;49.394;8.434;2024-02-16T17:55:09;14.70;99.90
19817;DHT22;68323;49.394;8.434;2024-02-16T17:57:35;14.70;99.90
19817;DHT22;68323;49.394;8.434;2024-02-16T18:00:01;14.70;99.90
19817;DHT22;68323;49.394;8.434;2024-02-16T18:02:26;14.60;99.90
19817;DHT22;68323;49.394;8.434;2024-02-16T18:04:53;14.60;99.90
19817;DHT22;68323;49.394;8.434;2024-02-16T18:07:19;14.60;99.90
19817;DHT22;68323;49.394;8.434;2024-02-16T18:09:45;14.60;99.90
19817;DHT22;68323;49.394;8.434;2024-02-16T18:12:11;14.60;99.90
19817;DHT22;68323;49.394;8.434;2024-02-16T18:14:41;14.60;99.90
19817;DHT22;68323;49.394;8.434;2024-02-16T18:17:08;14.50;99.90
19817;DHT22;68323;49.394;8.434;2024-02-16T18:19:37;14.50;99.90
19817;DHT22;68323;49.394;8.434;2024-02-16T18:22:03;14.40;99.90
19817;DHT22;68323;49.394;8.434;2024-02-16T18:24:28;14.40;99.90
19817;DHT22;68323;49.394;8.434;2024-02-16T18:26:54;14.30;99.90
19817;DHT22;68323;49.394;8.434;2024-02-16T18:29:20;14.30;99.90
19817;DHT22;68323;49.394;8.434;2024-02-16T18:31:45;14.20;99.90
19817;DHT22;68323;49.394;8.434;2024-02-16T18:34:11;14.20;99.90
19817;DHT22;68323;49.394;8.434;2024-02-16T18:36:36;14.20;99.90
19817;DHT22;68323;49.394;8.434;2024-02-16T18:39:02;14.10;99.90
19817;DHT22;68323;49.394;8.434;2024-02-16T18:41:28;14.10;99.90
19817;DHT22;68323;49.394;8.434;2024-02-16T18:43:53;14.10;99.90
19817;DHT22;68323;49.394;8.434;2024-02-16T18:46:19;14.10;99.90
19817;DHT22;68323;49.394;8.434;2024-02-16T18:48:44;14.10;99.90
19817;DHT22;68323;49.394;8.434;2024-02-16T18:51:11;14.00;99.90
19817;DHT22;68323;49.394;8.434;2024-02-16T18:53:36;14.00;99.90
19817;DHT22;68323;49.394;8.434;2024-02-16T18:56:02;14.00;99.90
19817;DHT22;68323;49.394;8.434;2024-02-16T18:58:28;14.00;99.90
19817;DHT22;68323;49.394;8.434;2024-02-16T19:00:54;13.90;99.90
19817;DHT22;68323;49.394;8.434;2024-02-16T19:03:20;13.90;99.90
19817;DHT22;68323;49.394;8.434;2024-02-16T19:05:45;13.90;99.90
19817;DHT22;68323;49.394;8.434;2024-02-16T19:08:11;13.90;99.90
19817;DHT22;68323;49.394;8.434;2024-02-16T19:10:38;13.90;99.90
19817;DHT22;68323;49.394;8.434;2024-02-16T19:13:05;13.90;99.90
19817;DHT22;68323;49.394;8.434;2024-02-16T19:15:30;13.90;99.90
19817;DHT22;68323;49.394;8.434;2024-02-16T19:17:58;13.90;99.90
19817;DHT22;68323;49.394;8.434;2024-02-16T19:20:24;13.80;99.90
19817;DHT22;68323;49.394;8.434;2024-02-16T19:22:50;13.80;99.90
19817;DHT22;68323;49.394;8.434;2024-02-16T19:25:19;13.80;99.90
19817;DHT22;68323;49.394;8.434;2024-02-16T19:27:45;13.80;99.90
19817;DHT22;68323;49.394;8.434;2024-02-16T19:30:11;13.80;99.90
19817;DHT22;68323;49.394;8.434;2024-02-16T19:32:36;13.80;99.90
19817;DHT22;68323;49.394;8.434;2024-02-16T19:35:02;13.80;99.90
19817;DHT22;68323;49.394;8.434;2024-02-16T19:37:28;13.80;99.90
19817;DHT22;68323;49.394;8.434;2024-02-16T19:39:54;13.80;99.90
19817;DHT22;68323;49.394;8.434;2024-02-16T19:42:20;13.80;99.90
19817;DHT22;68323;49.394;8.434;2024-02-16T19:44:45;13.80;99.90
19817;DHT22;68323;49.394;8.434;2024-02-16T19:47:11;13.70;99.90
19817;DHT22;68323;49.394;8.434;2024-02-16T19:49:37;13.70;99.90
19817;DHT22;68323;49.394;8.434;2024-02-16T19:52:02;13.70;99.90
19817;DHT22;68323;49.394;8.434;2024-02-16T19:54:28;13.70;99.90
19817;DHT22;68323;49.394;8.434;2024-02-16T19:56:53;13.70;99.90
19817;DHT22;68323;49.394;8.434;2024-02-16T19:59:19;13.70;99.90
19817;DHT22;68323;49.394;8.434;2024-02-16T20:01:45;13.60;99.90
19817;DHT22;68323;49.394;8.434;2024-02-16T20:04:10;13.60;99.90
19817;DHT22;68323;49.394;8.434;2024-02-16T20:06:36;13.60;99.90
19817;DHT22;68323;49.394;8.434;2024-02-16T20:09:02;13.60;99.90
19817;DHT22;68323;49.394;8.434;2024-02-16T20:11:28;13.60;99.90
19817;DHT22;68323;49.394;8.434;2024-02-16T20:13:54;13.60;99.90
19817;DHT22;68323;49.394;8.434;2024-02-16T20:16:20;13.60;99.90
19817;DHT22;68323;49.394;8.434;2024-02-16T20:18:46;13.60;99.90
19817;DHT22;68323;49.394;8.434;2024-02-16T20:21:11;13.60;99.90
19817;DHT22;68323;49.394;8.434;2024-02-16T20:23:37;13.60;99.90
19817;DHT22;68323;49.394;8.434;2024-02-16T20:26:03;13.60;99.90
19817;DHT22;68323;49.394;8.434;2024-02-16T20:28:29;13.50;99.90
19817;DHT22;68323;49.394;8.434;2024-02-16T20:30:54;13.50;99.90
19817;DHT22;68323;49.394;8.434;2024-02-16T20:33:20;13.50;99.90
19817;DHT22;68323;49.394;8.434;2024-02-16T20:35:46;13.50;99.90
19817;DHT22;68323;49.394;8.434;2024-02-16T20:38:12;13.50;99.90
19817;DHT22;68323;49.394;8.434;2024-02-16T20:40:38;13.60;99.90
19817;DHT22;68323;49.394;8.434;2024-02-16T20:43:04;13.50;99.90
19817;DHT22;68323;49.394;8.434;2024-02-16T20:45:29;13.50;99.90
19817;DHT22;68323;49.394;8.434;2024-02-16T20:47:55;13.50;99.90
19817;DHT22;68323;49.394;8.434;2024-02-16T20:50:23;13.50;99.90
19817;DHT22;68323;49.394;8.434;2024-02-16T20:52:49;13.50;99.90
19817;DHT22;68323;49.394;8.434;2024-02-16T20:55:16;13.50;99.90
19817;DHT22;68323;49.394;8.434;2024-02-16T20:57:42;13.50;99.90
19817;DHT22;68323;49.394;8.434;2024-02-16T21:00:08;13.50;99.90
19817;DHT22;68323;49.394;8.434;2024-02-16T21:02:37;13.50;99.90
19817;DHT22;68323;49.394;8.434;2024-02-16T21:05:03;13.50;99.90
19817;DHT22;68323;49.394;8.434;2024-02-16T21:07:29;13.50;99.90
19817;DHT22;68323;49.394;8.434;2024-02-16T21:09:54;13.50;99.90
19817;DHT22;68323;49.394;8.434;2024-02-16T21:12:20;13.50;99.90
19817;DHT22;68323;49.394;8.434;2024-02-16T21:14:45;13.50;99.90
19817;DHT22;68323;49.394;8.434;2024-02-16T21:17:11;13.50;99.90
19817;DHT22;68323;49.394;8.434;2024-02-16T21:19:36;13.50;99.90
19817;DHT22;68323;49.394;8.434;2024-02-16T21:22:02;13.50;99.90
19817;DHT22;68323;49.394;8.434;2024-02-16T21:24:27;13.50;99.90
19817;DHT22;68323;49.394;8.434;2024-02-16T21:26:54;13.50;99.90
19817;DHT22;68323;49.394;8.434;2024-02-16T21:29:19;13.50;99.90
19817;DHT22;68323;49.394;8.434;2024-02-16T21:31:45;13.50;99.90
19817;DHT22;68323;49.394;8.434;2024-02-16T21:34:11;13.40;99.90
19817;DHT22;68323;49.394;8.434;2024-02-16T21:36:37;13.50;99.90
19817;DHT22;68323;49.394;8.434;2024-02-16T21:39:03;13.50;99.90
19817;DHT22;68323;49.394;8.434;2024-02-16T21:41:29;13.50;99.90
19817;DHT22;68323;49.394;8.434;2024-02-16T21:44:02;13.50;99.90
19817;DHT22;68323;49.394;8.434;2024-02-16T21:46:32;13.50;99.90
19817;DHT22;68323;49.394;8.434;2024-02-16T21:49:06;13.50;99.90
19817;DHT22;68323;49.394;8.434;2024-02-16T21:51:33;13.50;99.90
19817;DHT22;68323;49.394;8.434;2024-02-16T21:54:00;13.50;99.90
19817;DHT22;68323;49.394;8.434;2024-02-16T21:56:26;13.50;99.90
19817;DHT22;68323;49.394;8.434;2024-02-16T21:58:53;13.50;99.90
19817;DHT22;68323;49.394;8.434;2024-02-16T22:01:20;13.50;99.90
19817;DHT22;68323;49.394;8.434;2024-02-16T22:03:46;13.50;99.90
19817;DHT22;68323;49.394;8.434;2024-02-16T22:06:21;13.50;99.90
19817;DHT22;68323;49.394;8.434;2024-02-16T22:08:51;13.50;99.90
19817;DHT22;68323;49.394;8.434;2024-02-16T22:11:17;13.50;99.90
19817;DHT22;68323;49.394;8.434;2024-02-16T22:13:47;13.50;99.90
19817;DHT22;68323;49.394;8.434;2024-02-16T22:16:13;13.50;99.90
19817;DHT22;68323;49.394;8.434;2024-02-16T22:18:39;13.50;99.90
19817;DHT22;68323;49.394;8.434;2024-02-16T22:21:08;13.50;99.90
19817;DHT22;68323;49.394;8.434;2024-02-16T22:23:34;13.50;99.90
19817;DHT22;68323;49.394;8.434;2024-02-16T22:26:04;13.50;99.90
19817;DHT22;68323;49.394;8.434;2024-02-16T22:28:30;13.50;99.90
19817;DHT22;68323;49.394;8.434;2024-02-16T22:30:57;13.50;99.90
19817;DHT22;68323;49.394;8.434;2024-02-16T22:33:22;13.60;99.90
19817;DHT22;68323;49.394;8.434;2024-02-16T22:35:53;13.60;99.90
19817;DHT22;68323;49.394;8.434;2024-02-16T22:38:19;13.60;99.90
19817;DHT22;68323;49.394;8.434;2024-02-16T22:40:46;13.60;99.90
19817;DHT22;68323;49.394;8.434;2024-02-16T22:43:12;13.60;99.90
19817;DHT22;68323;49.394;8.434;2024-02-16T22:45:37;13.60;99.90
19817;DHT22;68323;49.394;8.434;2024-02-16T22:48:06;13.60;99.90
19817;DHT22;68323;49.394;8.434;2024-02-16T22:50:34;13.60;99.90
19817;DHT22;68323;49.394;8.434;2024-02-16T22:53:00;13.60;99.90
19817;DHT22;68323;49.394;8.434;2024-02-16T22:55:25;13.60;99.90
19817;DHT22;68323;49.394;8.434;2024-02-16T22:57:51;13.60;99.90
19817;DHT22;68323;49.394;8.434;2024-02-16T23:00:17;13.60;99.90
19817;DHT22;68323;49.394;8.434;2024-02-16T23:02:52;13.60;99.90
19817;DHT22;68323;49.394;8.434;2024-02-16T23:05:22;13.60;99.90
19817;DHT22;68323;49.394;8.434;2024-02-16T23:07:51;13.60;99.90
19817;DHT22;68323;49.394;8.434;2024-02-16T23:10:17;13.60;99.90
19817;DHT22;68323;49.394;8.434;2024-02-16T23:12:44;13.60;99.90
19817;DHT22;68323;49.394;8.434;2024-02-16T23:15:13;13.70;99.90
19817;DHT22;68323;49.394;8.434;2024-02-16T23:17:44;13.60;99.90
19817;DHT22;68323;49.394;8.434;2024-02-16T23:20:11;13.60;99.90
19817;DHT22;68323;49.394;8.434;2024-02-16T23:23:05;13.40;99.90
19817;DHT22;68323;49.394;8.434;2024-02-16T23:25:36;13.30;99.90
19817;DHT22;68323;49.394;8.434;2024-02-16T23:28:06;13.20;99.90
19817;DHT22;68323;49.394;8.434;2024-02-16T23:30:34;13.10;99.90
19817;DHT22;68323;49.394;8.434;2024-02-16T23:32:59;13.10;99.90
19817;DHT22;68323;49.394;8.434;2024-02-16T23:35:26;13.00;99.90
19817;DHT22;68323;49.394;8.434;2024-02-16T23:37:51;13.00;99.90
19817;DHT22;68323;49.394;8.434;2024-02-16T23:40:17;13.00;99.90
19817;DHT22;68323;49.394;8.434;2024-02-16T23:42:43;13.00;99.90
19817;DHT22;68323;49.394;8.434;2024-02-16T23:45:14;13.00;99.90
19817;DHT22;68323;49.394;8.434;2024-02-16T23:47:40;13.00;99.90
19817;DHT22;68323;49.394;8.434;2024-02-16T23:50:08;13.00;99.90
19817;DHT22;68323;49.394;8.434;2024-02-16T23:52:34;13.00;99.90
19817;DHT22;68323;49.394;8.434;2024-02-16T23:55:00;13.00;99.90
19817;DHT22;68323;49.394;8.434;2024-02-16T23:57:28;13.10;99.90
19817;DHT22;68323;49.394;8.434;2024-02-16T23:59:54;13.10;99.90
